Time;durP1;ratioP1;P1;durP2;ratioP2;P2;SDS_P1;SDS_P2;PMS_P1;PMS_P2;Temp;Humidity;BMP_temperature;BMP_pressure;BME280_temperature;BME280_humidity;BME280_pressure;Samples;Min_cycle;Max_cycle;Signal;HPM_P1;HPM_P2
2021/08/12 00:01:03;;;;;;;6.35;4.55;;;;;;;;;;5113365;28;20040;-78
2021/08/12 00:03:29;;;;;;;6.72;4.90;;;;;;;;;;5113347;28;20480;-79
2021/08/12 00:05:55;;;;;;;12.30;4.78;;;;;;;;;;5113174;28;20120;-78
2021/08/12 00:08:21;;;;;;;7.00;4.43;;;;;;;;;;5113368;28;20062;-79
2021/08/12 00:10:50;;;;;;;9.18;4.43;;;;;;;;;;5113243;28;20036;-79
2021/08/12 00:13:17;;;;;;;6.78;4.40;;;;;;;;;;5113147;28;20036;-78
2021/08/12 00:15:43;;;;;;;7.93;4.38;;;;;;;;;;5113154;28;20383;-79
2021/08/12 00:18:09;;;;;;;7.50;4.30;;;;;;;;;;5113358;28;20114;-79
2021/08/12 00:20:35;;;;;;;6.38;4.15;;;;;;;;;;5113045;28;20491;-77
2021/08/12 00:23:01;;;;;;;5.80;4.80;;;;;;;;;;5116574;28;20115;-79
2021/08/12 00:25:27;;;;;;;8.40;4.20;;;;;;;;;;5116804;28;20063;-78
2021/08/12 00:27:53;;;;;;;5.72;4.22;;;;;;;;;;5116834;28;20085;-79
2021/08/12 00:30:19;;;;;;;4.55;3.92;;;;;;;;;;5116715;28;20036;-79
2021/08/12 00:32:45;;;;;;;5.38;4.13;;;;;;;;;;5116408;28;20380;-79
2021/08/12 00:35:11;;;;;;;5.85;3.90;;;;;;;;;;5116847;28;20028;-78
2021/08/12 00:37:37;;;;;;;7.53;3.78;;;;;;;;;;5116460;28;20123;-79
2021/08/12 00:40:04;;;;;;;5.20;4.00;;;;;;;;;;5116420;28;20039;-78
2021/08/12 00:42:30;;;;;;;7.03;4.07;;;;;;;;;;5116779;28;20488;-77
2021/08/12 00:44:56;;;;;;;6.13;3.92;;;;;;;;;;5116557;28;20464;-79
2021/08/12 00:47:22;;;;;;;9.05;4.65;;;;;;;;;;5116580;28;20044;-78
2021/08/12 00:49:48;;;;;;;7.20;4.07;;;;;;;;;;5116186;28;20036;-78
2021/08/12 00:52:15;;;;;;;6.20;4.28;;;;;;;;;;5116332;28;20049;-79
2021/08/12 00:54:41;;;;;;;5.95;3.90;;;;;;;;;;5116187;28;20032;-79
2021/08/12 00:57:08;;;;;;;7.95;4.18;;;;;;;;;;5116289;28;20444;-79
2021/08/12 00:59:35;;;;;;;8.18;4.25;;;;;;;;;;5115626;28;20031;-78
2021/08/12 01:02:02;;;;;;;4.75;3.97;;;;;;;;;;5116224;28;20040;-78
2021/08/12 01:04:28;;;;;;;5.75;3.83;;;;;;;;;;5116009;28;20036;-77
2021/08/12 01:07:02;;;;;;;9.40;3.88;;;;;;;;;;5115799;28;20081;-78
2021/08/12 01:09:33;;;;;;;9.65;4.00;;;;;;;;;;5116160;28;20028;-79
2021/08/12 01:12:04;;;;;;;7.63;4.13;;;;;;;;;;5116051;28;20039;-79
2021/08/12 01:14:42;;;;;;;6.87;4.13;;;;;;;;;;5115500;28;20544;-79
2021/08/12 01:17:09;;;;;;;6.85;4.13;;;;;;;;;;5115946;28;20027;-78
2021/08/12 01:19:41;;;;;;;5.10;3.88;;;;;;;;;;5115701;28;20070;-79
2021/08/12 01:22:07;;;;;;;5.53;4.20;;;;;;;;;;5115591;28;20110;-78
2021/08/12 01:24:37;;;;;;;7.32;4.63;;;;;;;;;;5115833;28;20434;-78
2021/08/12 01:27:06;;;;;;;8.25;4.10;;;;;;;;;;5115531;28;20031;-79
2021/08/12 01:29:50;;;;;;;7.38;4.40;;;;;;;;;;5115146;28;20031;-79
2021/08/12 01:32:24;;;;;;;7.22;4.10;;;;;;;;;;5115504;28;20126;-79
2021/08/12 01:34:53;;;;;;;8.60;4.55;;;;;;;;;;5115767;28;20040;-79
2021/08/12 01:37:20;;;;;;;5.75;4.20;;;;;;;;;;5115264;28;20059;-79
2021/08/12 01:39:47;;;;;;;7.20;4.30;;;;;;;;;;5115060;28;20063;-79
2021/08/12 01:42:13;;;;;;;5.88;4.07;;;;;;;;;;5115630;28;20043;-78
2021/08/12 01:44:40;;;;;;;7.03;4.10;;;;;;;;;;5115024;28;20095;-79
2021/08/12 01:47:08;;;;;;;6.68;4.47;;;;;;;;;;5115289;28;20491;-79
2021/08/12 01:49:34;;;;;;;8.85;3.85;;;;;;;;;;5115255;28;20550;-78
2021/08/12 01:52:01;;;;;;;8.48;3.80;;;;;;;;;;5114934;28;20340;-79
2021/08/12 01:54:28;;;;;;;11.13;3.90;;;;;;;;;;5115178;28;20027;-78
2021/08/12 01:56:54;;;;;;;6.50;4.00;;;;;;;;;;5115200;28;20058;-79
2021/08/12 01:59:22;;;;;;;6.30;4.10;;;;;;;;;;5114620;28;20034;-77
2021/08/12 02:01:48;;;;;;;5.47;4.10;;;;;;;;;;5114932;28;20483;-78
2021/08/12 02:04:16;;;;;;;6.53;4.25;;;;;;;;;;5114989;28;20031;-79
2021/08/12 02:06:42;;;;;;;6.72;4.38;;;;;;;;;;5114633;28;20044;-79
2021/08/12 02:09:08;;;;;;;7.68;3.80;;;;;;;;;;5114975;28;20034;-79
2021/08/12 02:11:35;;;;;;;5.70;3.88;;;;;;;;;;5114649;28;20514;-79
2021/08/12 02:14:01;;;;;;;6.28;4.07;;;;;;;;;;5114783;28;20028;-79
2021/08/12 02:16:27;;;;;;;5.80;3.80;;;;;;;;;;5114655;28;20036;-79
2021/08/12 02:18:54;;;;;;;7.80;4.18;;;;;;;;;;5114613;28;20096;-79
2021/08/12 02:21:25;;;;;;;6.65;4.15;;;;;;;;;;5114714;28;20036;-79
2021/08/12 02:23:51;;;;;;;;;;;;;;;;;;5114960;28;20039;-79
2021/08/12 02:26:18;;;;;;;7.68;4.15;;;;;;;;;;5114671;28;19903;-79
2021/08/12 02:28:45;;;;;;;8.43;4.40;;;;;;;;;;5114515;28;20067;-79
2021/08/12 02:31:16;;;;;;;11.23;4.30;;;;;;;;;;5114615;28;20485;-79
2021/08/12 02:33:44;;;;;;;8.82;4.57;;;;;;;;;;5113972;28;20054;-79
2021/08/12 02:36:10;;;;;;;9.65;4.38;;;;;;;;;;5114372;28;20042;-79
2021/08/12 02:38:38;;;;;;;6.82;4.20;;;;;;;;;;5114248;28;20070;-79
2021/08/12 02:41:04;;;;;;;9.00;3.97;;;;;;;;;;5114141;28;20060;-79
2021/08/12 02:43:35;;;;;;;11.02;4.35;;;;;;;;;;5114094;28;20081;-79
2021/08/12 02:46:02;;;;;;;5.88;4.15;;;;;;;;;;5113541;28;20035;-68
2021/08/12 02:48:30;;;;;;;5.70;4.07;;;;;;;;;;5114238;28;20036;-79
2021/08/12 02:50:58;;;;;;;9.68;4.10;;;;;;;;;;5114245;28;20028;-79
2021/08/12 02:53:24;;;;;;;6.15;3.80;;;;;;;;;;5114012;28;20448;-77
2021/08/12 02:55:51;;;;;;;6.75;4.28;;;;;;;;;;5113899;28;20069;-76
2021/08/12 02:58:18;;;;;;;6.72;4.05;;;;;;;;;;5114253;28;20042;-79
2021/08/12 03:00:44;;;;;;;8.35;4.13;;;;;;;;;;5114123;28;20165;-79
2021/08/12 03:03:11;;;;;;;5.07;4.00;;;;;;;;;;5114029;28;20038;-79
2021/08/12 03:05:38;;;;;;;6.88;3.83;;;;;;;;;;5114054;28;20036;-79
2021/08/12 03:08:04;;;;;;;7.78;3.22;;;;;;;;;;5113949;28;20438;-79
2021/08/12 03:10:31;;;;;;;8.27;3.28;;;;;;;;;;5114234;28;20054;-78
2021/08/12 03:12:59;;;;;;;5.07;4.00;;;;;;;;;;5114224;28;20039;-80
2021/08/12 03:15:26;;;;;;;8.20;3.95;;;;;;;;;;5113781;28;20479;-79
2021/08/12 03:17:52;;;;;;;7.85;4.30;;;;;;;;;;5113791;28;20039;-79
2021/08/12 03:20:18;;;;;;;5.80;3.88;;;;;;;;;;5113749;28;20066;-79
2021/08/12 03:22:44;;;;;;;8.90;4.32;;;;;;;;;;5113942;28;20043;-78
2021/08/12 03:25:11;;;;;;;7.30;3.70;;;;;;;;;;5113750;28;20031;-79
2021/08/12 03:27:37;;;;;;;5.32;3.83;;;;;;;;;;5113834;28;20043;-78
2021/08/12 03:30:03;;;;;;;6.53;3.85;;;;;;;;;;5113771;28;20028;-78
2021/08/12 03:32:29;;;;;;;6.55;3.95;;;;;;;;;;5113517;28;20048;-79
2021/08/12 03:34:55;;;;;;;7.57;4.07;;;;;;;;;;5113632;28;20488;-79
2021/08/12 03:37:21;;;;;;;6.88;4.15;;;;;;;;;;5113683;28;20040;-79
2021/08/12 03:39:47;;;;;;;9.63;4.82;;;;;;;;;;5113834;28;20032;-79
2021/08/12 03:42:13;;;;;;;6.95;4.35;;;;;;;;;;5114016;28;20047;-79
2021/08/12 03:44:39;;;;;;;7.50;4.00;;;;;;;;;;5113698;28;20031;-78
2021/08/12 03:47:06;;;;;;;5.80;4.28;;;;;;;;;;5113598;28;20381;-79
2021/08/12 03:49:32;;;;;;;6.72;4.20;;;;;;;;;;5113748;28;20023;-79
2021/08/12 03:51:58;;;;;;;7.72;4.47;;;;;;;;;;5095172;28;20517;-79
2021/08/12 03:54:24;;;;;;;4.70;3.90;;;;;;;;;;5113413;28;20055;-78
2021/08/12 03:56:50;;;;;;;7.40;4.00;;;;;;;;;;5114912;28;20067;-78
2021/08/12 03:59:16;;;;;;;5.82;3.80;;;;;;;;;;5117624;28;20027;-78
2021/08/12 04:01:42;;;;;;;6.78;4.15;;;;;;;;;;5117454;28;20483;-78
2021/08/12 04:04:08;;;;;;;7.03;4.00;;;;;;;;;;5117510;28;20425;-79
2021/08/12 04:06:34;;;;;;;6.78;4.13;;;;;;;;;;5117438;28;20031;-79
2021/08/12 04:09:00;;;;;;;6.85;4.35;;;;;;;;;;5117268;28;20044;-77
2021/08/12 04:11:26;;;;;;;7.28;3.80;;;;;;;;;;5117198;28;20027;-79
2021/08/12 04:13:52;;;;;;;5.13;3.83;;;;;;;;;;5117254;28;20539;-78
2021/08/12 04:16:18;;;;;;;6.80;4.20;;;;;;;;;;5116881;28;20031;-79
2021/08/12 04:18:44;;;;;;;5.05;4.25;;;;;;;;;;5117008;28;20039;-79
2021/08/12 04:21:10;;;;;;;5.15;3.92;;;;;;;;;;5117021;28;20074;-78
2021/08/12 04:23:36;;;;;;;8.93;4.22;;;;;;;;;;5117052;28;20476;-79
2021/08/12 04:26:02;;;;;;;5.15;4.30;;;;;;;;;;5117100;28;20044;-79
2021/08/12 04:28:28;;;;;;;6.35;4.00;;;;;;;;;;5116905;28;20371;-79
2021/08/12 04:30:54;;;;;;;10.82;4.40;;;;;;;;;;5117164;28;20110;-79
2021/08/12 04:33:20;;;;;;;6.68;4.28;;;;;;;;;;5116390;28;20147;-78
2021/08/12 04:35:46;;;;;;;6.07;4.30;;;;;;;;;;5116743;28;20106;-79
2021/08/12 04:38:12;;;;;;;6.45;3.92;;;;;;;;;;5116750;28;20028;-79
2021/08/12 04:40:40;;;;;;;8.00;4.22;;;;;;;;;;5116514;28;20047;-77
2021/08/12 04:43:06;;;;;;;9.00;4.05;;;;;;;;;;5116674;28;20027;-79
2021/08/12 04:45:32;;;;;;;11.10;4.47;;;;;;;;;;5116847;28;20467;-76
2021/08/12 04:47:59;;;;;;;4.90;4.10;;;;;;;;;;5116361;28;20035;-76
2021/08/12 04:50:26;;;;;;;11.60;4.40;;;;;;;;;;5116760;28;20391;-75
2021/08/12 04:52:52;;;;;;;10.20;3.90;;;;;;;;;;5116303;28;20047;-75
2021/08/12 04:55:18;;;;;;;8.80;4.18;;;;;;;;;;5116084;28;20059;-75
2021/08/12 04:57:44;;;;;;;7.15;4.13;;;;;;;;;;5116355;28;20387;-76
2021/08/12 05:00:10;;;;;;;5.45;3.72;;;;;;;;;;5116424;28;20039;-74
2021/08/12 05:02:36;;;;;;;5.88;3.83;;;;;;;;;;5116233;28;20035;-75
2021/08/12 05:05:02;;;;;;;7.88;4.40;;;;;;;;;;5116156;28;20050;-74
2021/08/12 05:07:28;;;;;;;7.25;3.75;;;;;;;;;;5115659;28;20395;-74
2021/08/12 05:09:54;;;;;;;6.10;4.20;;;;;;;;;;5115690;28;20070;-74
2021/08/12 05:12:21;;;;;;;5.68;3.58;;;;;;;;;;5115876;28;20511;-71
2021/08/12 05:14:47;;;;;;;7.28;4.18;;;;;;;;;;5115462;28;20031;-74
2021/08/12 05:17:13;;;;;;;7.20;3.80;;;;;;;;;;5115606;28;20035;-73
2021/08/12 05:19:40;;;;;;;6.72;4.03;;;;;;;;;;5115444;28;20457;-72
2021/08/12 05:22:06;;;;;;;4.18;3.78;;;;;;;;;;5115344;28;20046;-75
2021/08/12 05:24:33;;;;;;;7.97;4.20;;;;;;;;;;5115744;28;20028;-74
2021/08/12 05:26:59;;;;;;;5.57;3.65;;;;;;;;;;5115690;28;20039;-74
2021/08/12 05:29:25;;;;;;;6.80;3.85;;;;;;;;;;5115533;28;20028;-74
2021/08/12 05:31:51;;;;;;;6.75;3.97;;;;;;;;;;5115573;28;20039;-75
2021/08/12 05:34:17;;;;;;;5.20;3.50;;;;;;;;;;5115000;28;20043;-75
2021/08/12 05:36:43;;;;;;;6.22;3.90;;;;;;;;;;5115429;28;20032;-75
2021/08/12 05:39:09;;;;;;;7.35;3.83;;;;;;;;;;5115303;28;20092;-73
2021/08/12 05:41:35;;;;;;;4.82;3.38;;;;;;;;;;5115626;28;20047;-71
2021/08/12 05:44:01;;;;;;;11.77;4.07;;;;;;;;;;5115417;28;20031;-75
2021/08/12 05:46:27;;;;;;;7.53;4.10;;;;;;;;;;5115232;28;20476;-76
2021/08/12 05:48:53;;;;;;;4.80;3.72;;;;;;;;;;5115412;28;20035;-74
2021/08/12 05:51:19;;;;;;;8.27;4.07;;;;;;;;;;5115373;28;20505;-74
2021/08/12 05:53:45;;;;;;;10.77;3.50;;;;;;;;;;5115552;28;20032;-75
2021/08/12 05:56:11;;;;;;;4.78;3.53;;;;;;;;;;5115127;28;20038;-83
2021/08/12 05:58:39;;;;;;;5.60;3.63;;;;;;;;;;5114884;28;20464;-83
2021/08/12 06:01:07;;;;;;;9.10;3.72;;;;;;;;;;5115023;28;20073;-83
2021/08/12 06:03:33;;;;;;;4.90;3.55;;;;;;;;;;5114855;28;20024;-83
2021/08/12 06:06:00;;;;;;;6.15;3.72;;;;;;;;;;5114904;28;20044;-81
2021/08/12 06:08:26;;;;;;;6.78;4.05;;;;;;;;;;5114843;28;20042;-83
2021/08/12 06:10:52;;;;;;;10.85;3.75;;;;;;;;;;5114518;28;20075;-85
2021/08/12 06:13:18;;;;;;;8.63;3.80;;;;;;;;;;5114616;28;20036;-74
2021/08/12 06:15:44;;;;;;;4.65;3.33;;;;;;;;;;5114781;28;20032;-75
2021/08/12 06:18:11;;;;;;;6.03;3.63;;;;;;;;;;5114744;28;20123;-79
2021/08/12 06:20:37;;;;;;;5.13;3.58;;;;;;;;;;5113928;28;20127;-80
2021/08/12 06:23:07;;;;;;;30.30;5.90;;;;;;;;;;5114785;28;20059;-87
2021/08/12 06:25:34;;;;;;;10.95;4.72;;;;;;;;;;5115204;28;20077;-87
2021/08/12 06:28:00;;;;;;;19.17;4.60;;;;;;;;;;5115142;28;20497;-88
2021/08/12 06:30:26;;;;;;;6.85;4.38;;;;;;;;;;5115016;28;20114;-78
2021/08/12 06:32:52;;;;;;;7.10;3.75;;;;;;;;;;5114192;28;20184;-74
2021/08/12 06:35:19;;;;;;;7.80;3.80;;;;;;;;;;5114618;28;20108;-82
2021/08/12 06:37:46;;;;;;;8.30;3.78;;;;;;;;;;5114177;28;20514;-82
2021/08/12 06:40:16;;;;;;;7.43;3.38;;;;;;;;;;5114267;28;20482;-83
2021/08/12 06:42:42;;;;;;;4.85;3.60;;;;;;;;;;5114498;28;20032;-82
2021/08/12 06:45:08;;;;;;;5.65;3.42;;;;;;;;;;5096059;28;20369;-84
2021/08/12 06:47:37;;;;;;;6.90;3.53;;;;;;;;;;5114162;28;20356;-82
2021/08/12 06:50:04;;;;;;;6.10;3.72;;;;;;;;;;5114265;28;20077;-75
2021/08/12 06:52:30;;;;;;;7.25;3.40;;;;;;;;;;5113832;28;20126;-69
2021/08/12 06:54:56;;;;;;;5.55;3.42;;;;;;;;;;5113983;28;20031;-75
2021/08/12 06:57:22;;;;;;;6.43;3.63;;;;;;;;;;5113939;28;20044;-75
2021/08/12 06:59:48;;;;;;;10.00;4.13;;;;;;;;;;5114318;28;20077;-76
2021/08/12 07:02:14;;;;;;;6.15;3.70;;;;;;;;;;5114204;28;20435;-75
2021/08/12 07:04:40;;;;;;;5.28;3.80;;;;;;;;;;5114083;28;20039;-75
2021/08/12 07:07:06;;;;;;;6.53;3.60;;;;;;;;;;5114241;28;20040;-75
2021/08/12 07:09:32;;;;;;;5.32;3.40;;;;;;;;;;5114092;28;20058;-76
2021/08/12 07:11:58;;;;;;;7.32;3.50;;;;;;;;;;5114018;28;20437;-75
2021/08/12 07:14:24;;;;;;;7.88;3.65;;;;;;;;;;5114034;28;20050;-75
2021/08/12 07:16:50;;;;;;;10.05;3.65;;;;;;;;;;5113664;28;20480;-76
2021/08/12 07:19:16;;;;;;;7.38;3.38;;;;;;;;;;5113962;28;20047;-75
2021/08/12 07:21:42;;;;;;;4.57;3.60;;;;;;;;;;5113925;28;20042;-74
2021/08/12 07:24:09;;;;;;;5.47;3.42;;;;;;;;;;5113942;28;20036;-75
2021/08/12 07:26:35;;;;;;;8.48;3.85;;;;;;;;;;5113714;28;20039;-74
2021/08/12 07:29:01;;;;;;;6.60;3.28;;;;;;;;;;5113786;28;20031;-76
2021/08/12 07:31:27;;;;;;;7.38;3.50;;;;;;;;;;5116184;28;20391;-76
2021/08/12 07:33:53;;;;;;;11.05;3.72;;;;;;;;;;5117660;28;20055;-76
2021/08/12 07:36:19;;;;;;;5.15;3.60;;;;;;;;;;5118212;28;20040;-74
2021/08/12 07:38:46;;;;;;;6.75;3.22;;;;;;;;;;5117797;28;20031;-76
2021/08/12 07:41:12;;;;;;;3.85;3.40;;;;;;;;;;5118115;28;20042;-74
2021/08/12 07:43:40;;;;;;;9.50;3.30;;;;;;;;;;5117676;28;20032;-75
2021/08/12 07:46:06;;;;;;;9.68;3.85;;;;;;;;;;5117925;28;20035;-76
2021/08/12 07:48:32;;;;;;;5.60;2.97;;;;;;;;;;5117658;28;20031;-75
2021/08/12 07:50:58;;;;;;;6.65;3.10;;;;;;;;;;5117811;28;20035;-76
2021/08/12 07:53:24;;;;;;;4.40;3.30;;;;;;;;;;5117456;28;20035;-75
2021/08/12 07:55:50;;;;;;;14.02;5.28;;;;;;;;;;5117301;28;20063;-74
2021/08/12 07:58:16;;;;;;;7.07;3.22;;;;;;;;;;5117624;28;20165;-75
2021/08/12 08:00:43;;;;;;;6.18;3.05;;;;;;;;;;5117503;28;20039;-74
2021/08/12 08:03:09;;;;;;;4.50;3.03;;;;;;;;;;5117325;28;20039;-75
2021/08/12 08:05:35;;;;;;;4.07;3.15;;;;;;;;;;5117199;28;20024;-75
2021/08/12 08:08:01;;;;;;;5.25;3.13;;;;;;;;;;5117429;28;20028;-76
2021/08/12 08:10:27;;;;;;;5.78;3.10;;;;;;;;;;5117273;28;20106;-74
2021/08/12 08:12:54;;;;;;;9.73;3.95;;;;;;;;;;5116979;28;20044;-75
2021/08/12 08:15:21;;;;;;;6.57;3.33;;;;;;;;;;5117405;28;20032;-75
2021/08/12 08:17:47;;;;;;;8.55;3.25;;;;;;;;;;5117204;28;20085;-76
2021/08/12 08:20:14;;;;;;;11.98;3.40;;;;;;;;;;5116891;28;20032;-76
2021/08/12 08:22:40;;;;;;;8.18;3.72;;;;;;;;;;5117303;28;20439;-77
2021/08/12 08:25:07;;;;;;;4.85;2.90;;;;;;;;;;5116930;28;20039;-76
2021/08/12 08:27:33;;;;;;;5.80;3.33;;;;;;;;;;5117066;28;20049;-76
2021/08/12 08:29:59;;;;;;;4.22;2.85;;;;;;;;;;5117020;28;20039;-75
2021/08/12 08:32:26;;;;;;;11.75;3.03;;;;;;;;;;5116686;28;20127;-77
2021/08/12 08:34:53;;;;;;;3.97;2.60;;;;;;;;;;5116270;28;20036;-76
2021/08/12 08:37:19;;;;;;;5.38;2.95;;;;;;;;;;5116891;28;20042;-74
2021/08/12 08:39:46;;;;;;;5.53;3.10;;;;;;;;;;5116727;28;20063;-76
2021/08/12 08:42:12;;;;;;;6.35;3.65;;;;;;;;;;5115952;28;20028;-76
2021/08/12 08:44:40;;;;;;;6.43;2.92;;;;;;;;;;5116411;28;20114;-76
2021/08/12 08:47:07;;;;;;;4.63;3.08;;;;;;;;;;5116616;28;20078;-76
2021/08/12 08:49:37;;;;;;;5.68;3.30;;;;;;;;;;5116428;28;20468;-76
2021/08/12 08:52:03;;;;;;;4.72;3.10;;;;;;;;;;5116425;28;20044;-77
2021/08/12 08:54:30;;;;;;;8.50;3.13;;;;;;;;;;5116560;28;20028;-77
2021/08/12 08:56:57;;;;;;;4.93;3.10;;;;;;;;;;5116547;28;20126;-76
2021/08/12 08:59:24;;;;;;;4.93;3.42;;;;;;;;;;5116393;28;20035;-76
2021/08/12 09:01:50;;;;;;;5.93;2.92;;;;;;;;;;5116112;28;20038;-77
2021/08/12 09:04:16;;;;;;;8.73;3.20;;;;;;;;;;5116276;28;20063;-76
2021/08/12 09:06:42;;;;;;;8.65;3.08;;;;;;;;;;5116252;28;20070;-76
2021/08/12 09:09:08;;;;;;;5.47;2.92;;;;;;;;;;5116310;28;20036;-74
2021/08/12 09:11:34;;;;;;;7.30;3.20;;;;;;;;;;5116070;28;20039;-76
2021/08/12 09:14:20;;;;;;;7.38;3.40;;;;;;;;;;5116083;28;20044;-76
2021/08/12 09:16:46;;;;;;;4.28;3.08;;;;;;;;;;5115642;28;20085;-76
2021/08/12 09:19:12;;;;;;;3.53;3.03;;;;;;;;;;5115966;28;20036;-75
2021/08/12 09:21:38;;;;;;;3.47;2.88;;;;;;;;;;5115734;28;20036;-73
2021/08/12 09:24:04;;;;;;;4.32;2.92;;;;;;;;;;5115959;28;20028;-75
2021/08/12 09:26:37;;;;;;;5.97;3.00;;;;;;;;;;5115880;28;20039;-76
2021/08/12 09:29:03;;;;;;;4.47;3.03;;;;;;;;;;5115947;28;20028;-75
2021/08/12 09:31:29;;;;;;;7.45;3.85;;;;;;;;;;5115623;28;20035;-75
2021/08/12 09:33:55;;;;;;;6.95;3.08;;;;;;;;;;5115668;28;20055;-76
2021/08/12 09:36:27;;;;;;;4.10;2.95;;;;;;;;;;5115863;28;20119;-68
2021/08/12 09:39:06;;;;;;;5.78;2.97;;;;;;;;;;5115321;28;20032;-76
2021/08/12 09:41:40;;;;;;;6.15;2.92;;;;;;;;;;5115877;28;20028;-76
2021/08/12 09:44:06;;;;;;;4.93;2.90;;;;;;;;;;5115315;28;20032;-75
2021/08/12 09:46:34;;;;;;;4.15;3.25;;;;;;;;;;5115428;28;20028;-74
2021/08/12 09:49:02;;;;;;;5.60;3.00;;;;;;;;;;5115313;28;20040;-75
2021/08/12 09:51:33;;;;;;;3.65;3.13;;;;;;;;;;5115189;28;20035;-75
2021/08/12 09:54:03;;;;;;;5.15;2.83;;;;;;;;;;5114063;28;20039;-75
2021/08/12 09:56:29;;;;;;;4.70;3.55;;;;;;;;;;5115328;28;20036;-75
2021/08/12 09:59:05;;;;;;;3.97;3.22;;;;;;;;;;5115264;28;20036;-76
2021/08/12 10:01:31;;;;;;;6.38;3.35;;;;;;;;;;5115333;28;20040;-75
2021/08/12 10:03:57;;;;;;;7.15;3.20;;;;;;;;;;5115160;28;20027;-76
2021/08/12 10:06:24;;;;;;;6.40;3.28;;;;;;;;;;5114924;28;20476;-75
2021/08/12 10:08:51;;;;;;;8.27;3.10;;;;;;;;;;5115122;28;20391;-75
2021/08/12 10:11:18;;;;;;;12.10;3.30;;;;;;;;;;5114952;28;20502;-75
2021/08/12 10:13:45;;;;;;;5.80;3.20;;;;;;;;;;5114812;28;20457;-76
2021/08/12 10:16:11;;;;;;;5.38;3.35;;;;;;;;;;5114717;28;20032;-75
2021/08/12 10:18:38;;;;;;;7.40;3.28;;;;;;;;;;5114841;28;20051;-75
2021/08/12 10:21:04;;;;;;;4.82;3.30;;;;;;;;;;5115108;28;20051;-74
2021/08/12 10:23:31;;;;;;;6.38;3.30;;;;;;;;;;5114673;28;20031;-75
2021/08/12 10:25:58;;;;;;;6.68;3.42;;;;;;;;;;5114579;28;20040;-75
2021/08/12 10:28:26;;;;;;;4.22;3.17;;;;;;;;;;5114632;28;20172;-75
2021/08/12 10:30:56;;;;;;;5.50;2.97;;;;;;;;;;5114471;28;20404;-75
2021/08/12 10:33:22;;;;;;;8.43;3.53;;;;;;;;;;5114154;28;20088;-75
2021/08/12 10:35:48;;;;;;;9.43;3.10;;;;;;;;;;5114584;28;20468;-74
2021/08/12 10:38:14;;;;;;;6.28;3.35;;;;;;;;;;5114575;28;20427;-74
2021/08/12 10:40:42;;;;;;;3.65;2.95;;;;;;;;;;5114337;28;20111;-74
2021/08/12 10:43:10;;;;;;;5.03;2.88;;;;;;;;;;5114467;28;20032;-74
2021/08/12 10:45:36;;;;;;;4.22;2.95;;;;;;;;;;5114312;28;20034;-74
2021/08/12 10:48:03;;;;;;;6.50;3.03;;;;;;;;;;5114015;28;20032;-75
2021/08/12 10:50:34;;;;;;;3.53;3.00;;;;;;;;;;5114675;28;20035;-74
2021/08/12 10:53:07;;;;;;;5.55;3.10;;;;;;;;;;5114053;28;20058;-74
2021/08/12 10:55:34;;;;;;;6.15;3.20;;;;;;;;;;5114409;28;20035;-74
2021/08/12 10:58:18;;;;;;;4.35;3.25;;;;;;;;;;5114385;28;20410;-74
2021/08/12 11:00:52;;;;;;;4.13;2.78;;;;;;;;;;5114437;28;20031;-75
2021/08/12 11:03:33;;;;;;;6.93;3.20;;;;;;;;;;5114192;28;20039;-75
2021/08/12 11:05:59;;;;;;;;;;;;;;;;;;5114360;28;20032;-74
2021/08/12 11:08:44;;;;;;;7.43;2.90;;;;;;;;;;5114177;28;20363;-75
2021/08/12 11:11:10;;;;;;;5.82;2.90;;;;;;;;;;5113903;28;20067;-75
2021/08/12 11:13:36;;;;;;;4.20;2.70;;;;;;;;;;5113819;28;20400;-74
2021/08/12 11:16:02;;;;;;;4.95;3.15;;;;;;;;;;5114072;28;20027;-75
2021/08/12 11:18:43;;;;;;;4.22;2.90;;;;;;;;;;5113840;28;20063;-74
2021/08/12 11:21:09;;;;;;;;;;;;;;;;;;5114380;28;20111;-74
2021/08/12 11:23:35;;;;;;;5.22;2.90;;;;;;;;;;5113769;28;20331;-75
2021/08/12 11:26:03;;;;;;;3.55;2.80;;;;;;;;;;5113729;28;20111;-75
2021/08/12 11:28:41;;;;;;;11.15;3.72;;;;;;;;;;5113712;28;20035;-74
2021/08/12 11:31:29;;;;;;;15.48;4.35;;;;;;;;;;5113576;28;20024;-75
2021/08/12 11:33:59;;;;;;;4.55;3.00;;;;;;;;;;5113109;28;20130;-75
2021/08/12 11:36:38;;;;;;;6.65;3.17;;;;;;;;;;5114020;28;20115;-74
2021/08/12 11:39:08;;;;;;;4.18;3.03;;;;;;;;;;5113472;28;20089;-75
2021/08/12 11:41:38;;;;;;;6.28;3.10;;;;;;;;;;5113019;28;20376;-73
2021/08/12 11:44:09;;;;;;;4.93;3.15;;;;;;;;;;5113933;28;20028;-73
2021/08/12 11:46:36;;;;;;;7.38;3.08;;;;;;;;;;5113460;28;20023;-74
2021/08/12 11:49:03;;;;;;;5.07;2.72;;;;;;;;;;5113471;28;20392;-72
2021/08/12 11:51:32;;;;;;;8.18;3.92;;;;;;;;;;5113691;28;20468;-75
2021/08/12 11:53:58;;;;;;;5.03;2.67;;;;;;;;;;5113794;28;20035;-75
2021/08/12 11:56:27;;;;;;;4.90;3.00;;;;;;;;;;5113123;28;20039;-74
2021/08/12 11:58:54;;;;;;;6.53;3.00;;;;;;;;;;5113332;28;20489;-74
2021/08/12 12:01:22;;;;;;;4.25;2.95;;;;;;;;;;5113407;28;20032;-75
2021/08/12 12:03:49;;;;;;;6.55;3.45;;;;;;;;;;5113280;28;20043;-74
2021/08/12 12:06:34;;;;;;;4.97;2.92;;;;;;;;;;5113634;28;20024;-74
2021/08/12 12:09:18;;;;;;;3.78;2.58;;;;;;;;;;5113354;28;20032;-73
2021/08/12 12:11:55;;;;;;;6.03;3.00;;;;;;;;;;5113012;28;20556;-75
2021/08/12 12:14:22;;;;;;;10.70;2.97;;;;;;;;;;5113271;28;20499;-73
2021/08/12 12:17:06;;;;;;;4.25;2.78;;;;;;;;;;5095014;28;20495;-73
2021/08/12 12:19:32;;;;;;;8.40;3.33;;;;;;;;;;5116149;28;20032;-71
2021/08/12 12:21:58;;;;;;;5.63;3.20;;;;;;;;;;5115591;28;20027;-73
2021/08/12 12:24:24;;;;;;;5.70;2.92;;;;;;;;;;5116426;28;20038;-74
2021/08/12 12:26:57;;;;;;;5.35;2.97;;;;;;;;;;5116720;28;20082;-75
2021/08/12 12:29:23;;;;;;;6.70;3.10;;;;;;;;;;5116428;28;20503;-75
2021/08/12 12:31:59;;;;;;;7.07;3.20;;;;;;;;;;5116660;28;20051;-75
2021/08/12 12:34:25;;;;;;;5.72;3.22;;;;;;;;;;5116437;28;20047;-73
2021/08/12 12:36:51;;;;;;;6.78;2.90;;;;;;;;;;5116886;28;20027;-74
2021/08/12 12:39:18;;;;;;;6.10;3.33;;;;;;;;;;5116365;28;20042;-75
2021/08/12 12:41:44;;;;;;;7.18;3.30;;;;;;;;;;5116594;28;20457;-73
2021/08/12 12:44:12;;;;;;;9.90;3.25;;;;;;;;;;5115811;28;20088;-74
2021/08/12 12:46:38;;;;;;;7.30;3.58;;;;;;;;;;5116159;28;20452;-74
2021/08/12 12:49:23;;;;;;;4.10;3.10;;;;;;;;;;5116201;28;20089;-75
2021/08/12 12:51:49;;;;;;;5.75;3.15;;;;;;;;;;5097780;28;20036;-75
2021/08/12 12:54:15;;;;;;;3.80;2.92;;;;;;;;;;5116354;28;20043;-75
2021/08/12 12:56:43;;;;;;;6.65;3.10;;;;;;;;;;5116229;28;20070;-75
2021/08/12 12:59:13;;;;;;;7.43;3.13;;;;;;;;;;5116292;28;20074;-75
2021/08/12 13:01:39;;;;;;;8.25;3.63;;;;;;;;;;5116063;28;20081;-76
2021/08/12 13:04:05;;;;;;;7.03;3.33;;;;;;;;;;5116270;28;20051;-76
2021/08/12 13:06:34;;;;;;;5.97;3.08;;;;;;;;;;5115709;28;20114;-76
2021/08/12 13:09:00;;;;;;;7.47;3.30;;;;;;;;;;5115621;28;20061;-75
2021/08/12 13:11:30;;;;;;;12.38;3.67;;;;;;;;;;5115534;28;20489;-75
2021/08/12 13:14:07;;;;;;;5.20;3.10;;;;;;;;;;5097040;28;20036;-72
2021/08/12 13:16:44;;;;;;;6.60;3.28;;;;;;;;;;5115744;28;20077;-70
2021/08/12 13:19:18;;;;;;;5.18;3.10;;;;;;;;;;5115128;28;20449;-75
2021/08/12 13:21:45;;;;;;;7.35;3.25;;;;;;;;;;5115930;28;20027;-74
2021/08/12 13:24:13;;;;;;;11.05;3.20;;;;;;;;;;5115560;28;20043;-75
2021/08/12 13:26:39;;;;;;;8.55;3.03;;;;;;;;;;5115667;28;20059;-74
2021/08/12 13:29:06;;;;;;;5.57;2.97;;;;;;;;;;5115298;28;20042;-75
2021/08/12 13:31:36;;;;;;;8.20;3.40;;;;;;;;;;5115512;28;20040;-77
2021/08/12 13:34:02;;;;;;;9.82;3.13;;;;;;;;;;5115555;28;20043;-76
2021/08/12 13:36:28;;;;;;;4.40;3.15;;;;;;;;;;5115411;28;20032;-73
2021/08/12 13:38:54;;;;;;;7.88;3.13;;;;;;;;;;5115953;28;20507;-76
2021/08/12 13:41:20;;;;;;;7.40;2.97;;;;;;;;;;5115685;28;20115;-76
2021/08/12 13:43:46;;;;;;;12.48;3.72;;;;;;;;;;5115473;28;20037;-75
2021/08/12 13:46:12;;;;;;;5.47;3.00;;;;;;;;;;5115527;28;20452;-75
2021/08/12 13:48:38;;;;;;;9.25;3.28;;;;;;;;;;5115421;28;20075;-75
2021/08/12 13:51:05;;;;;;;5.45;3.20;;;;;;;;;;5115447;28;20043;-75
2021/08/12 13:53:31;;;;;;;4.53;2.90;;;;;;;;;;5115186;28;20101;-75
2021/08/12 13:55:57;;;;;;;4.15;2.90;;;;;;;;;;5115231;28;20031;-75
2021/08/12 13:58:23;;;;;;;3.65;2.97;;;;;;;;;;5114984;28;20035;-76
2021/08/12 14:00:50;;;;;;;6.22;3.22;;;;;;;;;;5115309;28;20513;-77
2021/08/12 14:03:22;;;;;;;6.32;2.80;;;;;;;;;;5115039;28;20380;-77
2021/08/12 14:05:48;;;;;;;6.38;3.35;;;;;;;;;;5115212;28;20039;-77
2021/08/12 14:08:15;;;;;;;6.88;3.30;;;;;;;;;;5115409;28;20035;-77
2021/08/12 14:10:42;;;;;;;9.95;3.03;;;;;;;;;;5115149;28;20081;-77
2021/08/12 14:13:08;;;;;;;4.13;3.08;;;;;;;;;;5114889;28;20047;-79
2021/08/12 14:15:34;;;;;;;5.18;2.80;;;;;;;;;;5115182;28;20035;-79
2021/08/12 14:18:00;;;;;;;5.65;3.33;;;;;;;;;;5114881;28;20035;-78
2021/08/12 14:20:26;;;;;;;7.40;2.90;;;;;;;;;;5114796;28;20024;-78
2021/08/12 14:22:52;;;;;;;5.05;3.42;;;;;;;;;;5114844;28;20035;-79
2021/08/12 14:25:18;;;;;;;7.78;2.90;;;;;;;;;;5115146;28;20499;-79
2021/08/12 14:27:47;;;;;;;6.15;2.75;;;;;;;;;;5114799;28;20059;-79
2021/08/12 14:30:13;;;;;;;4.45;2.80;;;;;;;;;;5114382;28;20497;-79
2021/08/12 14:32:39;;;;;;;5.95;2.95;;;;;;;;;;5114365;28;20055;-79
2021/08/12 14:35:05;;;;;;;6.25;3.17;;;;;;;;;;5114972;28;20032;-78
2021/08/12 14:37:31;;;;;;;5.13;2.67;;;;;;;;;;5114322;28;20115;-77
2021/08/12 14:40:02;;;;;;;6.60;3.00;;;;;;;;;;5113900;28;20110;-78
2021/08/12 14:42:28;;;;;;;4.38;2.33;;;;;;;;;;5114549;28;20085;-77
2021/08/12 14:44:54;;;;;;;6.85;2.80;;;;;;;;;;5114645;28;20035;-77